Flight Track Log - Related Links

Times and Time Zones

All times are in EST time to prevent confusion due to time zone crossing. See the UAL4234 flight status page for this flight to view local times or setup timezone preferences in your user account.

Time Position Orientation Groundspeed Altitude Reporting Facility
EST Latitude Longitude Course Direction KTS MPH feet Rate Location/Type
Tue 08:21:48 AM 40.7000 -74.1500 246° West 165 190 1,500  Level New York TRACON
Tue 08:22:48 AM 40.7500 -74.1500 360° North 199 229 3,800 2,400 Climbing New York TRACON
Tue 08:23:43 AM 40.7500 -74.2167 270° West 233 268 6,100 2,750 Climbing New York TRACON
Tue 08:24:48 AM 40.7167 -74.3000 242° Southwest 227 261 9,300 1,844 Climbing New York TRACON
Tue 08:25:00 AM 40.5641 -74.4928 250° West  Level FlightAware Approximate
Tue 08:26:00 AM 40.5396 -74.5829 250° West  Level FlightAware Approximate
Tue 08:26:55 AM 40.6536 -74.4719 244° Southwest 273 314 12,000  Level New York Center
Tue 08:27:00 AM 40.5146 -74.6727 246° West  Level FlightAware Approximate
Tue 08:27:55 AM 40.6111 -74.5653 239° Southwest 287 330 13,600  Level New York Center
Tue 08:28:55 AM 40.5706 -74.6533 239° Southwest 287 330 14,600 1,050 Climbing New York Center
Tue 08:29:55 AM 40.5281 -74.7436 238° Southwest 287 330 15,700 700 Climbing New York Center
Tue 08:30:55 AM 40.4897 -74.8261 239° Southwest 292 336 16,000 150 Climbing New York Center
Tue 08:31:55 AM 40.4469 -74.9192 239° Southwest 292 336 16,000  Level New York Center
Tue 08:32:55 AM 40.3961 -75.0033 232° Southwest 292 336 16,000  Level New York Center
Tue 08:33:55 AM 40.3367 -75.0922 229° Southwest 304 350 16,000  Level New York Center
Tue 08:34:55 AM 40.2794 -75.1703 226° Southwest 299 344 16,000  Level New York Center
Tue 08:35:55 AM 40.2244 -75.2511 228° Southwest 305 351 16,000  Level New York Center
Tue 08:36:55 AM 40.1694 -75.3236 225° Southwest 310 357 16,000  Level New York Center
Tue 08:37:55 AM 40.1058 -75.4089 226° Southwest 305 351 16,000  Level New York Center
Tue 08:38:55 AM 40.0550 -75.4814 228° Southwest 305 351 16,000  Level New York Center
Tue 08:39:55 AM 39.9908 -75.5692 226° Southwest 305 351 16,000  Level New York Center
Tue 08:40:55 AM 39.9400 -75.6417 228° Southwest 305 351 16,000  Level New York Center
Tue 08:41:55 AM 39.8839 -75.7350 232° Southwest 305 351 16,000 -636 Level New York Center
Tue 08:44:32 AM 39.7667 -75.9667 247° West 305 351 13,700 -971 Descending Potomac TRACON
Tue 08:46:33 AM 39.6667 -76.1333 232° Southwest 233 268 11,500 -1,392 Descending Potomac TRACON
Tue 08:47:33 AM 39.6167 -76.1833 218° Southwest 242 278 9,500 -1,947 Descending Potomac TRACON
Tue 08:48:27 AM 39.5667 -76.2333 218° Southwest 242 278 7,800 -2,000 Descending Potomac TRACON
Tue 08:49:27 AM 39.5167 -76.2833 218° Southwest 249 287 5,700 -1,400 Descending Potomac TRACON
Tue 08:50:27 AM 39.4667 -76.3500 226° Southwest 258 297 5,000 -368 Descending Potomac TRACON
Tue 08:51:21 AM 39.4167 -76.4000 218° Southwest 260 299 5,000 -104 Level Potomac TRACON
Tue 08:52:22 AM 39.3500 -76.4167 191° South 266 306 4,800 -843 Descending Potomac TRACON
Tue 08:53:22 AM 39.2667 -76.4333 189° South 257 296 3,300 -900 Descending Potomac TRACON
Tue 08:54:22 AM 39.2000 -76.4333 180° South 222 255 3,000 -158 Descending Potomac TRACON
Tue 08:55:16 AM 39.1500 -76.4500 194° South 218 251 3,000 53 Level Potomac TRACON
Tue 08:56:16 AM 39.1000 -76.4667 195° South 201 231 3,100 50 Climbing Potomac TRACON
Tue 08:57:16 AM 39.0500 -76.5000 207° Southwest 185 213 3,100  Level Potomac TRACON
Tue 08:58:05 AM 39.0500 -76.5333 270° West 169 194 3,100 -275 Level Potomac TRACON
Tue 08:59:05 AM 39.0667 -76.5833 293° West 160 184 2,600 -650 Descending Potomac TRACON
Tue 09:00:05 AM 39.1000 -76.6167 322° Northwest 130 150 1,800 -783 Descending Potomac TRACON
Tue 09:01:00 AM 39.1333 -76.6333 339° North 124 143 1,100 -764 Descending Potomac TRACON

Login

Don't have an account? Register now (free) for customized features, flight alerts, and more!